Time;durP1;ratioP1;P1;durP2;ratioP2;P2;SDS_P1;SDS_P2;PMS_P1;PMS_P2;Temp;Humidity;BMP_temperature;BMP_pressure;BME280_temperature;BME280_humidity;BME280_pressure;Samples;Min_cycle;Max_cycle;Signal;HPM_P1;HPM_P2
2021/11/15 00:01:51;;;;;;;27.15;15.30;;;;;;;7.37;100.00;96799.84;4992441;28;20089;-55
2021/11/15 00:04:20;;;;;;;26.20;14.45;;;;;;;7.07;100.00;96797.72;4996575;28;20069;-57
2021/11/15 00:06:49;;;;;;;28.42;14.05;;;;;;;7.13;100.00;96799.06;4993887;28;20058;-54
2021/11/15 00:09:18;;;;;;;25.15;13.95;;;;;;;7.21;100.00;96799.31;5002926;28;20074;-56
2021/11/15 00:11:48;;;;;;;25.33;13.25;;;;;;;7.05;100.00;96809.28;4994798;28;20065;-56
2021/11/15 00:14:17;;;;;;;27.08;15.07;;;;;;;7.22;100.00;96806.22;5003490;28;20061;-55
2021/11/15 00:16:46;;;;;;;29.17;16.20;;;;;;;7.44;100.00;96808.09;4995685;28;20097;-54
2021/11/15 00:19:15;;;;;;;20.33;12.20;;;;;;;7.10;100.00;96797.50;4994401;28;20081;-52
2021/11/15 00:21:43;;;;;;;29.27;15.98;;;;;;;7.42;100.00;96798.66;5000936;28;20073;-59
2021/11/15 00:24:12;;;;;;;25.05;14.55;;;;;;;7.28;100.00;96784.78;4992010;28;20073;-54
2021/11/15 00:26:40;;;;;;;26.30;14.30;;;;;;;7.18;100.00;96786.44;4998017;28;20488;-58
2021/11/15 00:29:09;;;;;;;30.02;16.35;;;;;;;7.47;100.00;96786.88;5000047;28;20073;-59
2021/11/15 00:31:38;;;;;;;27.48;15.52;;;;;;;7.10;100.00;96791.44;5004377;28;20787;-58
2021/11/15 00:34:08;;;;;;;26.25;14.05;;;;;;;7.12;100.00;96792.13;4993199;28;20096;-56
2021/11/15 00:36:36;;;;;;;25.23;13.63;;;;;;;7.00;100.00;96796.53;4990196;28;20098;-56
2021/11/15 00:39:05;;;;;;;22.65;12.68;;;;;;;6.94;100.00;96798.75;4991265;28;20078;-54
2021/11/15 00:41:34;;;;;;;25.98;13.65;;;;;;;6.96;100.00;96802.13;4992965;28;20066;-58
2021/11/15 00:44:02;;;;;;;31.02;15.07;;;;;;;7.14;100.00;96805.97;4993165;28;20072;-56
2021/11/15 00:46:31;;;;;;;27.13;14.48;;;;;;;7.10;100.00;96801.94;4997711;28;20144;-55
2021/11/15 00:48:59;;;;;;;28.20;15.05;;;;;;;7.10;100.00;96805.38;4995573;28;20524;-55
2021/11/15 00:51:31;;;;;;;29.42;16.30;;;;;;;7.27;100.00;96800.66;4999374;28;20072;-57
2021/11/15 00:54:00;;;;;;;28.00;15.77;;;;;;;7.00;100.00;96806.19;4994899;28;20528;-54
2021/11/15 00:56:28;;;;;;;27.38;14.15;;;;;;;6.95;100.00;96808.28;4992525;28;20064;-54
2021/11/15 00:58:57;;;;;;;29.83;15.52;;;;;;;7.34;100.00;96805.31;4993706;28;20089;-56
2021/11/15 01:01:25;;;;;;;32.90;15.95;;;;;;;7.22;100.00;96803.59;5003382;28;20080;-55
2021/11/15 01:03:54;;;;;;;27.75;14.32;;;;;;;7.17;100.00;96797.88;5005407;28;20068;-57
2021/11/15 01:06:23;;;;;;;32.33;16.15;;;;;;;7.65;100.00;96802.97;4989566;28;20066;-52
2021/11/15 01:08:53;;;;;;;34.38;16.33;;;;;;;7.77;100.00;96804.66;4978697;28;20069;-58
2021/11/15 01:11:21;;;;;;;28.25;15.20;;;;;;;7.12;100.00;96793.00;4979459;28;20066;-54
2021/11/15 01:13:50;;;;;;;26.30;13.48;;;;;;;7.07;100.00;96802.97;4974952;28;20078;-56
2021/11/15 01:16:19;;;;;;;31.15;16.05;;;;;;;7.46;100.00;96807.97;4993769;28;20066;-56
2021/11/15 01:18:49;;;;;;;29.58;15.95;;;;;;;7.12;100.00;96813.97;4995993;28;20674;-54
2021/11/15 01:21:18;;;;;;;;;;;;;;;7.16;100.00;96813.72;4996913;28;20066;-57
2021/11/15 01:23:46;;;;;;;29.90;15.32;;;;;;;7.26;100.00;96818.19;4990621;28;20406;-56
2021/11/15 01:26:17;;;;;;;29.15;16.13;;;;;;;7.27;100.00;96822.47;4992121;28;20062;-55
2021/11/15 01:28:47;;;;;;;32.03;15.80;;;;;;;7.20;100.00;96810.78;4991338;28;20077;-56
2021/11/15 01:31:16;;;;;;;31.60;17.07;;;;;;;7.20;100.00;96818.66;4992663;28;20062;-52
2021/11/15 01:33:44;;;;;;;32.67;17.58;;;;;;;7.32;100.00;96812.47;4995197;28;20482;-55
2021/11/15 01:36:13;;;;;;;33.80;17.20;;;;;;;7.38;100.00;96805.91;4995593;28;20069;-56
2021/11/15 01:38:41;;;;;;;32.05;16.63;;;;;;;7.30;100.00;96810.94;4994546;28;20061;-55
2021/11/15 01:41:10;;;;;;;29.80;15.75;;;;;;;6.98;100.00;96810.69;4994318;28;20076;-55
2021/11/15 01:43:40;;;;;;;33.92;17.10;;;;;;;7.12;100.00;96800.00;4992409;28;20088;-54
2021/11/15 01:46:08;;;;;;;33.53;16.15;;;;;;;7.13;100.00;96799.91;4998431;28;20539;-55
2021/11/15 01:48:37;;;;;;;30.75;14.90;;;;;;;6.92;100.00;96806.75;4997923;28;20062;-56
2021/11/15 01:51:06;;;;;;;25.25;14.00;;;;;;;6.85;100.00;96800.28;4993474;28;20054;-57
2021/11/15 01:53:34;;;;;;;33.85;16.08;;;;;;;6.99;100.00;96792.25;4994221;28;20066;-55
2021/11/15 01:56:03;;;;;;;34.08;17.02;;;;;;;7.12;100.00;96803.50;4996667;28;20073;-54
2021/11/15 01:58:31;;;;;;;35.45;18.38;;;;;;;7.60;100.00;96803.34;4997818;28;20448;-54
2021/11/15 02:01:01;;;;;;;27.60;15.25;;;;;;;7.18;100.00;96803.97;4993952;28;20503;-58
2021/11/15 02:03:32;;;;;;;31.63;16.35;;;;;;;7.34;100.00;96807.13;4992048;28;20088;-55
2021/11/15 02:06:01;;;;;;;32.40;17.10;;;;;;;7.50;100.00;96804.13;4995388;28;20070;-55
2021/11/15 02:08:29;;;;;;;33.25;17.40;;;;;;;7.44;100.00;96809.88;4991826;28;20070;-54
2021/11/15 02:10:58;;;;;;;35.38;17.98;;;;;;;7.16;100.00;96801.47;4998422;28;20065;-50
2021/11/15 02:13:27;;;;;;;30.30;15.25;;;;;;;6.98;100.00;96798.41;4994673;28;20061;-53
2021/11/15 02:15:56;;;;;;;30.85;15.98;;;;;;;7.11;100.00;96793.94;4993669;28;20080;-57
2021/11/15 02:18:26;;;;;;;32.30;17.30;;;;;;;7.68;100.00;96788.78;4993774;28;20058;-56
2021/11/15 02:20:58;;;;;;;33.60;16.17;;;;;;;7.51;100.00;96784.84;4995742;28;20061;-52
2021/11/15 02:23:29;;;;;;;34.20;17.77;;;;;;;7.26;100.00;96794.59;4991127;28;20440;-57
2021/11/15 02:25:59;;;;;;;36.28;18.40;;;;;;;7.36;100.00;96787.69;4994882;28;20038;-55
2021/11/15 02:28:29;;;;;;;33.67;17.23;;;;;;;7.20;100.00;96784.53;4996842;28;20066;-53
2021/11/15 02:30:58;;;;;;;31.85;16.30;;;;;;;7.08;100.00;96788.06;4993602;28;20062;-58
2021/11/15 02:33:28;;;;;;;30.92;16.98;;;;;;;7.07;100.00;96784.63;5004582;28;20074;-53
2021/11/15 02:35:58;;;;;;;32.65;17.77;;;;;;;7.02;100.00;96783.28;4999196;28;20859;-55
2021/11/15 02:38:28;;;;;;;34.20;17.60;;;;;;;6.94;100.00;96783.03;4994002;28;20062;-52
2021/11/15 02:40:57;;;;;;;36.78;17.60;;;;;;;6.91;100.00;96781.47;4993528;28;20449;-56
2021/11/15 02:43:25;;;;;;;35.20;17.80;;;;;;;7.14;100.00;96775.34;4994709;28;20070;-55
2021/11/15 02:45:54;;;;;;;34.97;16.05;;;;;;;6.64;100.00;96771.22;5002929;28;20070;-56
2021/11/15 02:48:27;;;;;;;32.65;15.13;;;;;;;6.65;100.00;96760.66;4992132;28;20550;-51
2021/11/15 02:50:57;;;;;;;27.15;14.82;;;;;;;6.57;100.00;96773.50;4993528;28;20089;-55
2021/11/15 02:53:26;;;;;;;32.42;15.98;;;;;;;6.67;100.00;96771.00;4991021;28;20533;-53
2021/11/15 02:55:55;;;;;;;30.17;15.70;;;;;;;6.69;100.00;96765.69;4997619;28;20042;-56
2021/11/15 02:58:23;;;;;;;29.10;15.75;;;;;;;6.71;100.00;96767.25;5007590;28;20077;-52
2021/11/15 03:00:55;;;;;;;33.28;16.90;;;;;;;6.65;100.00;96763.28;4992865;28;20081;-56
2021/11/15 03:03:24;;;;;;;29.42;14.10;;;;;;;6.66;100.00;96769.34;4992884;28;20073;-56
2021/11/15 03:05:54;;;;;;;33.45;17.17;;;;;;;6.97;100.00;96767.91;4997457;28;20070;-56
2021/11/15 03:08:25;;;;;;;30.27;15.40;;;;;;;6.72;100.00;96768.91;4994147;28;20065;-55
2021/11/15 03:10:58;;;;;;;31.88;16.08;;;;;;;6.78;100.00;96768.47;4998143;28;20519;-54
2021/11/15 03:13:28;;;;;;;36.67;17.55;;;;;;;7.16;100.00;96766.50;4998783;28;20088;-56
2021/11/15 03:15:58;;;;;;;35.33;17.42;;;;;;;7.16;100.00;96758.66;4993415;28;20038;-56
2021/11/15 03:18:29;;;;;;;34.08;18.25;;;;;;;7.13;100.00;96765.81;4998209;28;20460;-53
2021/11/15 03:20:59;;;;;;;35.83;18.08;;;;;;;7.16;100.00;96770.00;4990167;28;20062;-55
2021/11/15 03:23:30;;;;;;;37.50;17.95;;;;;;;7.37;100.00;96775.41;4991214;28;20085;-56
2021/11/15 03:26:01;;;;;;;36.75;18.77;;;;;;;6.93;100.00;96771.72;4999063;28;20080;-54
2021/11/15 03:28:32;;;;;;;34.65;17.73;;;;;;;7.15;100.00;96770.94;4999128;28;20085;-55
2021/11/15 03:31:03;;;;;;;37.50;19.42;;;;;;;6.84;100.00;96780.25;4975480;28;20065;-55
2021/11/15 03:33:34;;;;;;;30.20;15.40;;;;;;;6.59;100.00;96771.56;4991592;28;20066;-52
2021/11/15 03:36:03;;;;;;;35.22;18.00;;;;;;;6.99;100.00;96767.81;4991788;28;20065;-53
2021/11/15 03:38:33;;;;;;;36.47;17.60;;;;;;;6.60;100.00;96767.16;4997314;28;20122;-58
2021/11/15 03:41:02;;;;;;;33.53;16.42;;;;;;;6.82;100.00;96764.66;4994770;28;20594;-57
2021/11/15 03:43:31;;;;;;;32.15;16.73;;;;;;;6.97;100.00;96759.22;4998765;28;20081;-56
2021/11/15 03:45:59;;;;;;;29.40;14.82;;;;;;;6.61;100.00;96764.44;4978893;28;20560;-59
2021/11/15 03:48:28;;;;;;;30.95;14.98;;;;;;;6.63;100.00;96762.53;4993191;28;20262;-58
2021/11/15 03:50:57;;;;;;;29.10;14.18;;;;;;;6.58;100.00;96769.91;4992677;28;20070;-53
2021/11/15 03:53:28;;;;;;;35.50;16.88;;;;;;;6.72;100.00;96771.53;5001501;28;20061;-57
2021/11/15 03:55:58;;;;;;;34.00;15.50;;;;;;;6.68;100.00;96764.84;4997682;28;20105;-52
2021/11/15 03:58:27;;;;;;;40.97;18.77;;;;;;;7.04;100.00;96768.28;4992313;28;20565;-55
2021/11/15 04:00:57;;;;;;;33.40;17.10;;;;;;;6.77;100.00;96773.78;4990369;28;20066;-58
2021/11/15 04:03:31;;;;;;;34.92;16.40;;;;;;;6.67;100.00;96773.63;4992701;28;20070;-57
2021/11/15 04:06:03;;;;;;;25.95;13.93;;;;;;;6.60;100.00;96754.06;4993398;28;20069;-55
2021/11/15 04:08:33;;;;;;;34.70;17.88;;;;;;;6.74;100.00;96756.50;4994970;28;20074;-52
2021/11/15 04:11:05;;;;;;;32.95;15.77;;;;;;;6.73;100.00;96762.72;4983344;28;20417;-54
2021/11/15 04:13:35;;;;;;;32.63;16.65;;;;;;;6.75;100.00;96758.19;5001324;28;20085;-55
2021/11/15 04:16:06;;;;;;;36.63;17.20;;;;;;;6.83;100.00;96765.47;4974513;28;20089;-56
2021/11/15 04:18:37;;;;;;;40.63;19.73;;;;;;;7.01;100.00;96760.66;4998770;28;20073;-53
2021/11/15 04:21:08;;;;;;;39.72;18.55;;;;;;;7.30;100.00;96761.91;4996940;28;20065;-60
2021/11/15 04:23:36;;;;;;;35.72;17.88;;;;;;;6.82;100.00;96758.59;5000004;28;20077;-58
2021/11/15 04:26:06;;;;;;;32.38;15.52;;;;;;;6.52;100.00;96759.88;4989036;28;20092;-57
2021/11/15 04:28:35;;;;;;;39.42;18.40;;;;;;;6.73;100.00;96759.25;4992887;28;20090;-57
2021/11/15 04:31:04;;;;;;;39.38;18.85;;;;;;;6.68;100.00;96761.38;4991897;28;20077;-58
2021/11/15 04:33:32;;;;;;;39.58;18.05;;;;;;;6.81;100.00;96755.13;4990002;28;20066;-55
2021/11/15 04:36:01;;;;;;;36.03;17.45;;;;;;;6.91;100.00;96750.00;4989243;28;20496;-53
2021/11/15 04:38:29;;;;;;;40.03;19.58;;;;;;;7.25;100.00;96748.31;4997808;28;20066;-58
2021/11/15 04:40:58;;;;;;;37.15;17.67;;;;;;;6.80;100.00;96753.44;4991431;28;20089;-58
2021/11/15 04:43:28;;;;;;;37.55;17.60;;;;;;;6.74;100.00;96746.03;4991265;28;20086;-58
2021/11/15 04:45:56;;;;;;;35.40;17.83;;;;;;;6.74;100.00;96743.41;4994195;28;20070;-55
2021/11/15 04:48:25;;;;;;;39.38;19.20;;;;;;;6.74;100.00;96742.56;4993963;28;20089;-51
2021/11/15 04:50:54;;;;;;;35.47;17.75;;;;;;;6.77;100.00;96745.78;4988649;28;20074;-57
2021/11/15 04:53:22;;;;;;;44.13;20.90;;;;;;;6.82;100.00;96741.06;4982318;28;20069;-54
2021/11/15 04:55:51;;;;;;;43.97;21.55;;;;;;;6.78;100.00;96744.88;4991156;28;20081;-55
2021/11/15 04:58:19;;;;;;;41.15;20.98;;;;;;;7.06;100.00;96737.56;4975655;28;20082;-57
2021/11/15 05:00:49;;;;;;;44.78;21.75;;;;;;;6.98;100.00;96740.72;4991520;28;20077;-55
2021/11/15 05:03:21;;;;;;;45.53;20.40;;;;;;;7.18;100.00;96741.84;4995288;28;20062;-58
2021/11/15 05:05:49;;;;;;;43.67;21.02;;;;;;;6.88;100.00;96743.22;4996749;28;20137;-56
2021/11/15 05:08:18;;;;;;;38.33;20.58;;;;;;;7.14;100.00;96751.75;4993387;28;20077;-57
2021/11/15 05:10:46;;;;;;;31.73;16.95;;;;;;;6.74;100.00;96747.81;4994326;28;20081;-60
2021/11/15 05:13:15;;;;;;;41.67;19.17;;;;;;;6.83;100.00;96752.38;4997576;28;20516;-56
2021/11/15 05:15:43;;;;;;;37.53;19.73;;;;;;;6.88;100.00;96743.22;4995507;28;20084;-54
2021/11/15 05:18:13;;;;;;;32.88;16.70;;;;;;;6.76;100.00;96756.41;4996341;28;20134;-51
2021/11/15 05:20:41;;;;;;;34.42;18.10;;;;;;;7.06;100.00;96756.75;4995081;28;20077;-55
2021/11/15 05:23:10;;;;;;;34.00;16.48;;;;;;;6.62;100.00;96760.03;4990538;28;20096;-57
2021/11/15 05:25:39;;;;;;;33.63;18.08;;;;;;;6.68;100.00;96767.47;4993173;28;20081;-59
2021/11/15 05:28:07;;;;;;;36.85;18.20;;;;;;;6.63;100.00;96764.31;4996832;28;20065;-60
2021/11/15 05:30:36;;;;;;;37.55;20.10;;;;;;;6.85;100.00;96755.72;4995571;28;20072;-55
2021/11/15 05:33:04;;;;;;;32.50;17.58;;;;;;;6.71;100.00;96764.63;4994376;28;20069;-56
2021/11/15 05:35:38;;;;;;;36.25;17.90;;;;;;;6.85;100.00;96753.94;5000063;28;20457;-54
2021/11/15 05:38:07;;;;;;;32.13;16.48;;;;;;;6.64;100.00;96745.88;4992848;28;20065;-55
2021/11/15 05:40:36;;;;;;;36.38;18.63;;;;;;;6.88;100.00;96747.63;4992787;28;20085;-53
2021/11/15 05:43:07;;;;;;;38.00;18.23;;;;;;;6.69;100.00;96761.25;4994201;28;20532;-57
2021/11/15 05:45:36;;;;;;;38.25;19.55;;;;;;;6.68;100.00;96761.38;5001005;28;20065;-59
2021/11/15 05:48:05;;;;;;;32.70;17.52;;;;;;;6.82;100.00;96772.53;4990546;28;20077;-57
2021/11/15 05:50:33;;;;;;;36.65;20.33;;;;;;;6.70;100.00;96778.66;4988196;28;20532;-57
2021/11/15 05:53:03;;;;;;;37.63;19.35;;;;;;;6.89;100.00;96784.22;4987518;28;20540;-55
2021/11/15 05:55:32;;;;;;;41.40;20.17;;;;;;;6.87;100.00;96759.88;4996412;28;20089;-53
2021/11/15 05:58:00;;;;;;;35.85;17.95;;;;;;;6.68;100.00;96775.31;4991159;28;20865;-58
2021/11/15 06:00:31;;;;;;;39.78;19.17;;;;;;;6.93;100.00;96773.50;4997411;28;20109;-60
2021/11/15 06:03:00;;;;;;;38.42;19.65;;;;;;;6.62;100.00;96768.75;4990035;28;20505;-55
2021/11/15 06:05:29;;;;;;;30.80;16.35;;;;;;;6.50;100.00;96780.09;4987385;28;20066;-57
2021/11/15 06:07:58;;;;;;;35.35;17.77;;;;;;;6.63;100.00;96777.44;4992844;28;20532;-54
2021/11/15 06:10:31;;;;;;;33.50;17.35;;;;;;;6.45;100.00;96784.03;4996365;28;20152;-54
2021/11/15 06:13:00;;;;;;;36.10;18.02;;;;;;;6.47;100.00;96785.59;4990233;28;20041;-59
2021/11/15 06:15:29;;;;;;;38.50;20.17;;;;;;;6.76;100.00;96785.25;4987594;28;20069;-55
2021/11/15 06:17:57;;;;;;;39.53;20.30;;;;;;;6.81;100.00;96776.09;4987398;28;20074;-59
2021/11/15 06:20:26;;;;;;;35.60;19.42;;;;;;;6.89;100.00;96789.47;4987686;28;20074;-57
2021/11/15 06:22:54;;;;;;;36.40;18.17;;;;;;;6.88;100.00;96782.56;4990772;28;20081;-55
2021/11/15 06:25:23;;;;;;;35.67;17.98;;;;;;;6.79;100.00;96783.22;4995981;28;20536;-54
2021/11/15 06:27:54;;;;;;;37.60;19.73;;;;;;;6.72;100.00;96786.41;4992309;28;20082;-56
2021/11/15 06:30:22;;;;;;;39.65;20.73;;;;;;;6.62;100.00;96786.25;4989580;28;20054;-58
2021/11/15 06:32:51;;;;;;;40.67;20.80;;;;;;;6.72;100.00;96787.25;4990969;28;20070;-54
2021/11/15 06:35:20;;;;;;;40.70;20.25;;;;;;;7.05;100.00;96777.81;4991312;28;20070;-52
2021/11/15 06:37:48;;;;;;;37.50;20.65;;;;;;;6.88;100.00;96789.56;4995275;28;20082;-56
2021/11/15 06:40:18;;;;;;;38.05;20.38;;;;;;;6.90;100.00;96785.88;4995310;28;20115;-58
2021/11/15 06:42:47;;;;;;;37.25;18.40;;;;;;;6.55;100.00;96788.47;4995037;28;20454;-57
2021/11/15 06:45:18;;;;;;;35.10;19.45;;;;;;;6.62;100.00;96792.31;5012914;28;20061;-54
2021/11/15 06:47:47;;;;;;;38.15;21.45;;;;;;;6.93;100.00;96789.25;4992883;28;20066;-58
2021/11/15 06:50:17;;;;;;;35.53;19.90;;;;;;;6.68;100.00;96791.06;4997776;28;20065;-55
2021/11/15 06:52:47;;;;;;;38.65;21.35;;;;;;;6.77;100.00;96792.16;4994361;28;20081;-56
2021/11/15 06:55:18;;;;;;;39.20;19.90;;;;;;;6.69;100.00;96792.72;5000592;28;20081;-59
2021/11/15 06:57:47;;;;;;;36.58;18.63;;;;;;;6.81;100.00;96793.59;4990911;28;20097;-56
2021/11/15 07:00:21;;;;;;;40.03;21.88;;;;;;;6.94;100.00;96802.22;4995451;28;20062;-57
2021/11/15 07:02:50;;;;;;;37.72;20.25;;;;;;;6.82;100.00;96801.34;4990453;28;20080;-57
2021/11/15 07:05:21;;;;;;;42.78;21.38;;;;;;;7.27;100.00;96801.50;4999360;28;20069;-58
2021/11/15 07:07:50;;;;;;;41.65;21.38;;;;;;;6.92;100.00;96808.50;4992790;28;20089;-54
2021/11/15 07:10:19;;;;;;;47.28;23.02;;;;;;;6.75;100.00;96805.38;4992883;28;20108;-59
2021/11/15 07:12:48;;;;;;;44.27;22.30;;;;;;;6.75;100.00;96801.91;4996803;28;20120;-56
2021/11/15 07:15:19;;;;;;;45.92;23.20;;;;;;;7.01;100.00;96802.59;4990189;28;20436;-58
2021/11/15 07:17:48;;;;;;;41.70;21.52;;;;;;;7.27;100.00;96801.50;4990366;28;20077;-59
2021/11/15 07:20:16;;;;;;;43.10;21.67;;;;;;;7.32;100.00;96803.75;4998039;28;20057;-59
2021/11/15 07:22:47;;;;;;;42.05;23.33;;;;;;;7.17;100.00;96800.50;4996045;28;20089;-57
2021/11/15 07:25:16;;;;;;;37.28;19.48;;;;;;;7.06;100.00;96795.25;4992497;28;20088;-60
2021/11/15 07:27:45;;;;;;;37.78;19.50;;;;;;;6.72;100.00;96810.84;4990282;28;20069;-58
2021/11/15 07:30:14;;;;;;;39.75;20.38;;;;;;;6.75;100.00;96815.03;4997551;28;20070;-56
2021/11/15 07:32:44;;;;;;;39.55;19.20;;;;;;;6.75;100.00;96815.84;4995529;28;20533;-58
2021/11/15 07:35:12;;;;;;;42.53;20.80;;;;;;;7.02;100.00;96812.13;4995717;28;20499;-57
2021/11/15 07:37:41;;;;;;;42.25;21.30;;;;;;;7.12;100.00;96819.22;5001055;28;20085;-58
2021/11/15 07:40:11;;;;;;;40.47;21.30;;;;;;;7.13;100.00;96817.44;5014253;28;20078;-56
2021/11/15 07:42:40;;;;;;;44.00;21.48;;;;;;;7.06;100.00;96824.09;4993120;28;20069;-54
2021/11/15 07:45:10;;;;;;;45.58;23.38;;;;;;;7.30;100.00;96819.63;4989856;28;20074;-60
2021/11/15 07:47:40;;;;;;;43.88;22.90;;;;;;;6.85;100.00;96822.09;4996413;28;20065;-57
2021/11/15 07:50:11;;;;;;;40.05;22.63;;;;;;;7.22;100.00;96821.13;4991635;28;20717;-58
2021/11/15 07:52:40;;;;;;;41.55;22.10;;;;;;;7.18;100.00;96828.41;4996454;28;20470;-57
2021/11/15 07:55:11;;;;;;;41.47;20.85;;;;;;;7.36;100.00;96820.94;4990877;28;21218;-59
2021/11/15 07:57:41;;;;;;;40.22;21.63;;;;;;;7.14;100.00;96826.97;4989988;28;20080;-60
2021/11/15 08:00:12;;;;;;;41.55;21.25;;;;;;;7.37;100.00;96826.09;4996424;28;20066;-57
2021/11/15 08:02:40;;;;;;;39.72;20.38;;;;;;;7.16;100.00;96816.34;4990404;28;20069;-56
2021/11/15 08:05:13;;;;;;;35.45;19.05;;;;;;;6.85;100.00;96818.66;5002612;28;20066;-52
2021/11/15 08:07:42;;;;;;;34.63;18.65;;;;;;;6.65;100.00;96825.34;4996050;28;20078;-59
2021/11/15 08:10:13;;;;;;;38.35;20.25;;;;;;;6.64;100.00;96824.50;4991721;28;20093;-59
2021/11/15 08:12:42;;;;;;;37.45;18.40;;;;;;;6.51;100.00;96828.97;4989327;28;20555;-57
2021/11/15 08:15:13;;;;;;;37.50;19.42;;;;;;;6.76;100.00;96820.16;4989371;28;20062;-60
2021/11/15 08:17:43;;;;;;;37.50;18.98;;;;;;;6.74;100.00;96837.75;4989575;28;20070;-59
2021/11/15 08:20:15;;;;;;;38.05;18.95;;;;;;;6.89;100.00;96831.41;4989428;28;20551;-57
2021/11/15 08:22:47;;;;;;;30.65;16.27;;;;;;;6.56;100.00;96842.53;4995202;28;20512;-58
2021/11/15 08:25:52;;;;;;;36.38;18.90;;;;;;;7.03;100.00;96840.03;4991416;28;20078;-59
2021/11/15 08:28:21;;;;;;;38.05;18.75;;;;;;;7.01;100.00;96845.38;4988357;28;21270;-53
2021/11/15 08:30:49;;;;;;;38.85;18.63;;;;;;;6.78;100.00;96841.84;4996880;28;20042;-59
2021/11/15 08:33:18;;;;;;;35.22;19.35;;;;;;;6.80;100.00;96839.09;5000658;28;20066;-55
2021/11/15 08:35:49;;;;;;;36.85;17.98;;;;;;;6.74;100.00;96845.63;4999662;28;20061;-54
2021/11/15 08:38:43;;;;;;;33.75;18.30;;;;;;;6.74;100.00;96840.38;4988685;28;20081;-56
2021/11/15 08:41:13;;;;;;;38.13;18.27;;;;;;;7.00;100.00;96843.72;4993430;28;20081;-58
2021/11/15 08:43:41;;;;;;;39.05;20.63;;;;;;;6.87;100.00;96845.56;4991393;28;20073;-59
2021/11/15 08:46:15;;;;;;;33.65;18.13;;;;;;;6.68;100.00;96858.34;4991658;28;20078;-59
2021/11/15 08:48:45;;;;;;;35.90;18.63;;;;;;;6.92;100.00;96840.84;4988837;28;20062;-58
2021/11/15 08:51:16;;;;;;;40.27;20.17;;;;;;;7.03;100.00;96838.25;4989130;28;20154;-56
2021/11/15 08:53:45;;;;;;;41.35;20.17;;;;;;;7.31;100.00;96831.78;4988663;28;20578;-58
2021/11/15 08:56:14;;;;;;;42.05;20.98;;;;;;;7.40;100.00;96832.03;4988774;28;20070;-56
2021/11/15 08:58:42;;;;;;;43.10;18.92;;;;;;;7.25;100.00;96832.25;4997944;28;20116;-60
2021/11/15 09:01:12;;;;;;;41.67;20.90;;;;;;;7.54;100.00;96840.56;4991074;28;20086;-54
2021/11/15 09:03:41;;;;;;;40.35;19.50;;;;;;;7.11;100.00;96840.31;4988323;28;20521;-56
2021/11/15 09:06:11;;;;;;;41.33;20.65;;;;;;;7.24;100.00;96845.47;4988322;28;20081;-57
2021/11/15 09:08:42;;;;;;;40.03;19.40;;;;;;;7.08;100.00;96845.78;4994743;28;20520;-56
2021/11/15 09:11:12;;;;;;;37.15;19.63;;;;;;;7.14;100.00;96842.69;4988187;28;20610;-56
2021/11/15 09:13:42;;;;;;;42.50;21.08;;;;;;;7.33;100.00;96843.00;5004385;28;20074;-57
2021/11/15 09:16:11;;;;;;;38.10;19.10;;;;;;;7.41;100.00;96838.97;5002508;28;20153;-58
2021/11/15 09:18:40;;;;;;;41.42;20.95;;;;;;;7.45;100.00;96843.03;5004864;28;20084;-54
2021/11/15 09:21:10;;;;;;;38.20;20.23;;;;;;;6.97;100.00;96830.84;4988045;28;20058;-59
2021/11/15 09:23:40;;;;;;;;;;;;;;;7.53;100.00;96830.16;4988640;28;20065;-54
2021/11/15 09:26:11;;;;;;;39.40;20.35;;;;;;;7.27;100.00;96832.97;4994921;28;20384;-60
2021/11/15 09:28:40;;;;;;;44.08;22.30;;;;;;;7.27;100.00;96834.75;4992731;28;20065;-56
2021/11/15 09:31:09;;;;;;;42.83;21.85;;;;;;;7.60;100.00;96844.47;5000496;28;21203;-57
2021/11/15 09:33:38;;;;;;;49.88;23.17;;;;;;;7.92;100.00;96838.56;4999800;28;20081;-56
2021/11/15 09:36:07;;;;;;;48.67;23.08;;;;;;;7.71;100.00;96838.41;4987734;28;20069;-59
2021/11/15 09:38:36;;;;;;;46.88;22.52;;;;;;;7.75;100.00;96824.13;4988145;28;20509;-58
2021/11/15 09:41:07;;;;;;;44.40;21.95;;;;;;;7.52;100.00;96836.38;4997469;28;20062;-57
2021/11/15 09:43:38;;;;;;;47.72;23.48;;;;;;;7.23;100.00;96831.53;4994239;28;20085;-56
2021/11/15 09:46:10;;;;;;;43.17;20.85;;;;;;;7.23;100.00;96834.16;4990862;28;20441;-56
2021/11/15 09:48:42;;;;;;;48.20;22.17;;;;;;;7.56;100.00;96832.53;5002833;28;20686;-54
2021/11/15 09:51:11;;;;;;;43.60;22.45;;;;;;;7.86;100.00;96826.75;4987798;28;20066;-58
2021/11/15 09:53:42;;;;;;;42.78;21.58;;;;;;;7.46;100.00;96837.66;5000652;28;20041;-53
2021/11/15 09:56:13;;;;;;;48.50;22.52;;;;;;;7.22;100.00;96839.50;4988790;28;20097;-56
2021/11/15 09:58:44;;;;;;;43.22;22.08;;;;;;;7.41;100.00;96844.22;5002427;28;20081;-56
2021/11/15 10:01:13;;;;;;;52.28;23.20;;;;;;;7.57;100.00;96836.84;4992656;28;20464;-58
2021/11/15 10:03:43;;;;;;;43.92;22.20;;;;;;;7.21;100.00;96843.09;4991166;28;20456;-59
2021/11/15 10:06:11;;;;;;;48.80;23.48;;;;;;;7.56;100.00;96843.03;4998192;28;20081;-60
2021/11/15 10:08:47;;;;;;;47.08;24.35;;;;;;;7.56;100.00;96835.16;5009722;28;20065;-57
2021/11/15 10:11:16;;;;;;;43.25;21.45;;;;;;;7.56;100.00;96832.53;4991849;28;20078;-56
2021/11/15 10:13:46;;;;;;;41.72;21.13;;;;;;;7.68;100.00;96829.00;4997727;28;20074;-57
2021/11/15 10:16:18;;;;;;;47.40;22.27;;;;;;;7.26;100.00;96823.44;4993801;28;20078;-58
2021/11/15 10:18:52;;;;;;;46.30;21.95;;;;;;;7.46;100.00;96824.53;4991982;28;20070;-60
2021/11/15 10:21:24;;;;;;;46.05;22.42;;;;;;;7.78;100.00;96827.34;4991423;28;20081;-58
2021/11/15 10:23:56;;;;;;;45.55;21.65;;;;;;;7.13;100.00;96823.50;4994333;28;20066;-59
2021/11/15 10:26:29;;;;;;;43.65;20.77;;;;;;;7.13;100.00;96822.69;4994946;28;20058;-59
2021/11/15 10:29:02;;;;;;;45.13;22.92;;;;;;;7.70;100.00;96823.63;5025793;28;20538;-58
2021/11/15 10:31:35;;;;;;;46.90;22.23;;;;;;;7.71;100.00;96820.03;4998320;28;20078;-56
2021/11/15 10:34:06;;;;;;;42.97;22.08;;;;;;;7.60;100.00;96826.97;5001120;28;20066;-60
2021/11/15 10:36:58;;;;;;;;;;;;;;;7.91;100.00;96826.38;4991947;28;20488;-58
2021/11/15 10:39:30;;;;;;;49.95;21.90;;;;;;;7.50;100.00;96825.13;4972064;28;19953;-60
2021/11/15 10:42:02;;;;;;;41.63;19.98;;;;;;;7.62;100.00;96813.72;4990651;28;20066;-58
2021/11/15 10:44:33;;;;;;;41.17;20.92;;;;;;;7.42;100.00;96814.41;4993855;28;20535;-60
2021/11/15 10:47:01;;;;;;;40.47;20.35;;;;;;;7.14;100.00;96800.75;4993692;28;20074;-58
2021/11/15 10:49:30;;;;;;;40.92;20.02;;;;;;;7.31;100.00;96809.97;5000957;28;20077;-57
2021/11/15 10:52:02;;;;;;;46.42;22.08;;;;;;;7.48;100.00;96808.69;4997408;28;20073;-57
2021/11/15 10:54:42;;;;;;;40.20;19.98;;;;;;;7.36;100.00;96819.16;4996854;28;20513;-57
2021/11/15 10:57:24;;;;;;;45.47;23.42;;;;;;;7.31;100.00;96809.97;4991074;28;20073;-60
2021/11/15 11:00:16;;;;;;;42.88;23.23;;;;;;;7.38;100.00;96805.91;4992183;28;20084;-58
2021/11/15 11:02:47;;;;;;;46.13;21.23;;;;;;;7.43;100.00;96802.94;4990210;28;20066;-58
2021/11/15 11:05:17;;;;;;;45.17;21.60;;;;;;;7.34;100.00;96804.50;4994104;28;20446;-61
2021/11/15 11:07:48;;;;;;;44.38;21.85;;;;;;;7.50;100.00;96801.50;4997209;28;20066;-55
2021/11/15 11:10:18;;;;;;;43.75;21.10;;;;;;;7.58;100.00;96794.75;4997627;28;20073;-58
2021/11/15 11:12:58;;;;;;;46.20;24.23;;;;;;;7.46;100.00;96792.22;4990016;28;20085;-59
2021/11/15 11:15:33;;;;;;;46.03;22.75;;;;;;;7.80;100.00;96788.66;4990707;28;20077;-58
2021/11/15 11:18:11;;;;;;;45.65;22.67;;;;;;;7.59;100.00;96787.69;4992092;28;20143;-59
2021/11/15 11:23:57;;;;;;;46.28;22.83;;;;;;;7.81;100.00;96781.63;4993015;28;20069;-59
2021/11/15 11:26:29;;;;;;;41.15;21.90;;;;;;;7.85;100.00;96776.03;4999214;28;20054;-56
2021/11/15 11:28:59;;;;;;;43.85;21.55;;;;;;;8.31;100.00;96766.28;4994369;28;20076;-57
2021/11/15 11:31:30;;;;;;;40.53;20.08;;;;;;;7.60;100.00;96774.47;4993905;28;20085;-54
2021/11/15 11:33:58;;;;;;;;;;;;;;;7.72;100.00;96777.09;4997958;28;20058;-57
2021/11/15 11:36:27;;;;;;;40.40;19.10;;;;;;;7.32;100.00;96773.09;4989922;28;19949;-59